CheckWX is a tool to help pilots better visualize weather data.  It is not intended as a substitute for an official pre-flight weather briefing.

16:29:19 UTC

EETU METAR
Tartu Airport
Tartu, Estonia
Current

39 mins ago

EETU 201550Z AUTO 25007KT 9999 SCT011/// BKN014/// BKN024/// 03/02 Q1014 RERA
Observed
Feb-20 @ 15:50 UTC
Wind
  • 250° at 7 KTS
Visibility
10,000+ meters
Flight Rules
MVFR
Cloud Levels
  • Scattered at 1,100' AGL
  • Broken at 1,400' AGL
  • Broken at 2,400' AGL
Temperature
C / 37°F
Dewpoint
C / 36°F
Humidity
93%
Altimeter
29.94" Hg
Pressure
1013.92 hPa
Previous

2 hours ago

EETU 201450Z 25006KT 230V290 9999 -SHRA SCT011 FEW017CB BKN029 04/02 Q1014
Observed
Feb-20 @ 14:50 UTC
Wind
  • 250° at 6 KTS
Visibility
10,000+ meters
Flight Rules
MVFR
Conditions
Light Rain
Cloud Levels
  • Scattered at 1,100' AGL
  • Few at 1,700' AGL
  • Broken at 2,900' AGL
Temperature
C / 39°F
Dewpoint
C / 36°F
Humidity
87%
Altimeter
29.94" Hg
Pressure
1013.92 hPa
Previous

3 hours ago

EETU 201350Z 27006KT 230V300 9999 BKN026 04/01 Q1014
Observed
Feb-20 @ 13:50 UTC
Wind
  • 270° at 6 KTS
Visibility
10,000+ meters
Flight Rules
MVFR
Cloud Levels
  • Broken at 2,600' AGL
Temperature
C / 39°F
Dewpoint
C / 34°F
Humidity
81%
Altimeter
29.94" Hg
Pressure
1013.92 hPa